createdAt,value
2022-12-13T00:00:09.973Z,15.50
2022-12-13T00:00:19.968Z,15.30
2022-12-13T00:00:30.049Z,15.50
2022-12-13T00:00:40.127Z,15.70
2022-12-13T00:00:50.198Z,16.30
2022-12-13T00:01:00.293Z,16.60
2022-12-13T00:01:10.362Z,16.00
2022-12-13T00:01:20.451Z,15.60
2022-12-13T00:01:30.543Z,15.10
2022-12-13T00:01:40.640Z,15.20
2022-12-13T00:01:50.768Z,15.60
2022-12-13T00:02:00.949Z,16.00
2022-12-13T00:02:10.923Z,16.10
2022-12-13T00:02:21.022Z,16.10
2022-12-13T00:02:31.119Z,16.30
2022-12-13T00:02:41.248Z,16.60
2022-12-13T00:02:51.321Z,15.90
2022-12-13T00:03:01.421Z,15.30
2022-12-13T00:03:11.488Z,14.00
2022-12-13T00:03:21.594Z,13.30
2022-12-13T00:03:31.678Z,13.60
2022-12-13T00:03:41.789Z,14.40
2022-12-13T00:03:51.900Z,15.50
2022-12-13T00:04:01.908Z,15.70
2022-12-13T00:04:11.874Z,15.50
2022-12-13T00:04:21.960Z,15.10
2022-12-13T00:04:31.978Z,15.10
2022-12-13T00:04:41.967Z,14.70
2022-12-13T00:04:52.049Z,14.90
2022-12-13T00:05:02.129Z,14.70
2022-12-13T00:05:12.426Z,15.40
2022-12-13T00:05:22.227Z,15.20
2022-12-13T00:05:32.298Z,15.10
2022-12-13T00:05:42.387Z,14.60
2022-12-13T00:05:52.468Z,14.80
2022-12-13T00:06:02.551Z,15.20
2022-12-13T00:06:12.670Z,15.20
2022-12-13T00:06:22.739Z,15.90
2022-12-13T00:06:32.846Z,16.20
2022-12-13T00:06:42.938Z,16.10
2022-12-13T00:06:52.900Z,14.70
2022-12-13T00:07:03.011Z,14.00
2022-12-13T00:07:13.078Z,13.70
2022-12-13T00:07:23.168Z,14.30
2022-12-13T00:07:33.245Z,15.30
2022-12-13T00:07:43.349Z,16.40
2022-12-13T00:07:53.457Z,17.50
2022-12-13T00:08:03.653Z,18.20
2022-12-13T00:08:13.639Z,18.00
2022-12-13T00:08:23.565Z,18.10
2022-12-13T00:08:33.675Z,17.80
2022-12-13T00:08:43.758Z,16.60
2022-12-13T00:08:53.856Z,15.70
2022-12-13T00:09:03.943Z,14.50
2022-12-13T00:09:13.997Z,14.90
2022-12-13T00:09:24.070Z,15.20
2022-12-13T00:09:34.147Z,16.70
2022-12-13T00:09:44.236Z,16.20
2022-12-13T00:09:54.306Z,15.70
2022-12-13T00:10:04.390Z,14.70
2022-12-13T00:10:14.449Z,14.70
2022-12-13T00:10:24.535Z,15.50
2022-12-13T00:10:34.608Z,15.30
2022-12-13T00:10:44.688Z,15.70
2022-12-13T00:10:54.758Z,15.30
2022-12-13T00:11:04.859Z,15.60
2022-12-13T00:11:14.917Z,15.10
2022-12-13T00:11:24.998Z,15.40
2022-12-13T00:11:35.078Z,15.10
2022-12-13T00:11:45.148Z,15.30
2022-12-13T00:11:55.236Z,14.60
2022-12-13T00:12:05.315Z,14.20
2022-12-13T00:12:15.398Z,13.90
2022-12-13T00:12:25.478Z,14.50
2022-12-13T00:12:35.554Z,15.20
2022-12-13T00:12:45.647Z,15.90
2022-12-13T00:12:55.735Z,15.20
2022-12-13T00:13:05.802Z,15.20
2022-12-13T00:13:15.887Z,15.60
2022-12-13T00:13:25.967Z,16.20
2022-12-13T00:13:36.116Z,16.20
2022-12-13T00:13:46.216Z,15.60
2022-12-13T00:13:56.357Z,15.10
2022-12-13T00:14:06.467Z,15.10
2022-12-13T00:14:16.597Z,15.70
2022-12-13T00:14:26.695Z,17.00
2022-12-13T00:14:36.757Z,17.40
2022-12-13T00:14:46.847Z,17.70
2022-12-13T00:14:56.910Z,17.50
2022-12-13T00:15:07.018Z,17.30
2022-12-13T00:15:17.184Z,16.20
2022-12-13T00:15:27.076Z,16.30
2022-12-13T00:15:37.202Z,16.50
2022-12-13T00:15:47.264Z,17.10
2022-12-13T00:15:57.354Z,16.20
2022-12-13T00:16:07.479Z,14.90
2022-12-13T00:16:17.541Z,14.90
2022-12-13T00:16:27.547Z,15.00
2022-12-13T00:16:37.527Z,16.30
2022-12-13T00:16:47.711Z,15.80
2022-12-13T00:16:57.582Z,15.90
2022-12-13T00:17:07.536Z,15.30
2022-12-13T00:17:17.617Z,14.80
2022-12-13T00:17:27.614Z,15.30
2022-12-13T00:17:37.716Z,15.40
2022-12-13T00:17:47.783Z,15.40
2022-12-13T00:17:57.895Z,14.90
2022-12-13T00:18:07.977Z,14.20
2022-12-13T00:18:18.065Z,14.80
2022-12-13T00:18:28.197Z,15.10
2022-12-13T00:18:38.275Z,15.60
2022-12-13T00:18:48.367Z,15.30
2022-12-13T00:18:58.446Z,15.20
2022-12-13T00:19:08.617Z,15.80
2022-12-13T00:19:18.545Z,15.80
2022-12-13T00:19:28.635Z,15.70
2022-12-13T00:19:38.733Z,15.30
2022-12-13T00:19:48.823Z,14.60
2022-12-13T00:19:58.960Z,14.20
2022-12-13T00:20:09.027Z,14.70
2022-12-13T00:20:19.123Z,14.60
2022-12-13T00:20:29.202Z,15.30
2022-12-13T00:20:39.297Z,15.30
2022-12-13T00:20:49.375Z,16.10
2022-12-13T00:20:59.494Z,16.10
2022-12-13T00:21:09.565Z,15.80
2022-12-13T00:21:19.785Z,14.80
2022-12-13T00:21:29.723Z,14.50
2022-12-13T00:21:39.812Z,14.10
2022-12-13T00:21:49.895Z,14.60
2022-12-13T00:21:59.975Z,15.30
2022-12-13T00:22:10.056Z,15.40
2022-12-13T00:22:20.153Z,15.20
2022-12-13T00:22:30.235Z,14.50
2022-12-13T00:22:40.334Z,15.10
2022-12-13T00:22:50.405Z,15.30
2022-12-13T00:23:00.505Z,16.10
2022-12-13T00:23:10.586Z,16.20
2022-12-13T00:23:20.677Z,16.50
2022-12-13T00:23:30.704Z,16.50
2022-12-13T00:23:40.786Z,15.90
2022-12-13T00:23:50.895Z,15.10
2022-12-13T00:24:00.985Z,15.00
2022-12-13T00:24:11.086Z,15.60
2022-12-13T00:24:21.175Z,16.00
2022-12-13T00:24:31.266Z,15.80
2022-12-13T00:24:45.887Z,14.80
2022-12-13T00:24:51.455Z,14.80
2022-12-13T00:25:01.534Z,16.00
2022-12-13T00:25:12.020Z,16.30
2022-12-13T00:25:21.734Z,16.60
2022-12-13T00:25:31.852Z,15.90
2022-12-13T00:25:41.936Z,16.10
2022-12-13T00:25:52.018Z,15.60
2022-12-13T00:26:02.106Z,15.60
2022-12-13T00:26:12.184Z,15.50
2022-12-13T00:26:22.254Z,15.40
2022-12-13T00:26:32.349Z,16.10
2022-12-13T00:26:42.437Z,15.70
2022-12-13T00:26:52.505Z,16.10
2022-12-13T00:27:02.574Z,16.20
2022-12-13T00:27:12.676Z,16.50
2022-12-13T00:27:22.794Z,16.60
2022-12-13T00:27:32.875Z,16.20
2022-12-13T00:27:42.943Z,15.30
2022-12-13T00:27:53.074Z,15.60
2022-12-13T00:28:03.134Z,15.40
2022-12-13T00:28:13.223Z,15.50
2022-12-13T00:28:23.293Z,15.20
2022-12-13T00:28:33.384Z,15.60
2022-12-13T00:28:43.473Z,16.40
2022-12-13T00:28:53.564Z,16.10
2022-12-13T00:29:03.655Z,16.40
2022-12-13T00:29:13.745Z,16.20
2022-12-13T00:29:23.793Z,16.20
2022-12-13T00:29:33.893Z,15.60
2022-12-13T00:29:43.972Z,14.80
2022-12-13T00:29:54.054Z,15.00
2022-12-13T00:30:04.215Z,15.40
2022-12-13T00:30:14.262Z,16.20
2022-12-13T00:30:24.353Z,15.90
2022-12-13T00:30:34.480Z,16.40
2022-12-13T00:30:44.633Z,16.40
2022-12-13T00:30:54.633Z,16.20
2022-12-13T00:31:43.082Z,15.60
2022-12-13T00:31:51.642Z,15.50
2022-12-13T00:31:56.796Z,15.70
2022-12-13T00:31:59.537Z,15.90
2022-12-13T00:32:01.056Z,14.90
2022-12-13T00:32:09.759Z,14.80
2022-12-13T00:32:19.749Z,15.80
2022-12-13T00:32:29.772Z,14.80
2022-12-13T00:32:39.911Z,15.10
2022-12-13T00:32:50.041Z,14.40
2022-12-13T00:33:00.010Z,15.30
2022-12-13T00:33:10.167Z,15.40
2022-12-13T00:33:20.301Z,15.60
2022-12-13T00:33:30.433Z,15.90
2022-12-13T00:33:40.545Z,15.60
2022-12-13T00:33:50.670Z,16.50
2022-12-13T00:34:00.813Z,16.50
2022-12-13T00:34:10.942Z,17.20
2022-12-13T00:34:21.096Z,16.50
2022-12-13T00:34:31.214Z,16.30
2022-12-13T00:34:41.334Z,16.40
2022-12-13T00:34:51.453Z,16.40
2022-12-13T00:35:01.613Z,16.50
2022-12-13T00:35:11.894Z,15.70
2022-12-13T00:35:21.734Z,14.70
2022-12-13T00:35:31.809Z,14.70
2022-12-13T00:35:41.902Z,14.90
2022-12-13T00:35:51.973Z,15.40
2022-12-13T00:36:02.072Z,15.70
2022-12-13T00:36:12.188Z,15.50
2022-12-13T00:36:22.281Z,15.50
2022-12-13T00:36:32.362Z,14.90
2022-12-13T00:36:42.512Z,15.50
2022-12-13T00:36:52.592Z,15.30
2022-12-13T00:37:02.692Z,16.00
2022-12-13T00:37:12.822Z,16.30
2022-12-13T00:37:22.917Z,17.20
2022-12-13T00:37:33.009Z,17.50
2022-12-13T00:37:43.097Z,16.90
2022-12-13T00:37:53.177Z,16.10
2022-12-13T00:38:03.253Z,15.20
2022-12-13T00:38:13.325Z,14.90
2022-12-13T00:38:23.412Z,15.00
2022-12-13T00:38:33.491Z,15.70
2022-12-13T00:38:43.573Z,15.90
2022-12-13T00:38:53.645Z,15.40
2022-12-13T00:39:03.725Z,14.70
2022-12-13T00:39:13.810Z,14.90
2022-12-13T00:39:23.901Z,15.70
2022-12-13T00:39:33.992Z,16.10
2022-12-13T00:39:44.090Z,15.70
2022-12-13T00:39:54.172Z,15.20
2022-12-13T00:40:04.262Z,15.00
2022-12-13T00:40:14.325Z,15.50
2022-12-13T00:40:24.410Z,15.70
2022-12-13T00:40:34.471Z,15.90
2022-12-13T00:40:44.560Z,15.30
2022-12-13T00:40:54.621Z,15.20
2022-12-13T00:41:04.711Z,15.20
2022-12-13T00:41:14.780Z,15.30
2022-12-13T00:41:24.862Z,15.30
2022-12-13T00:41:34.947Z,15.90
2022-12-13T00:41:45.055Z,16.00
2022-12-13T00:41:55.031Z,15.70
2022-12-13T00:42:05.114Z,15.00
2022-12-13T00:42:15.200Z,15.10
2022-12-13T00:42:25.232Z,15.60
2022-12-13T00:42:35.252Z,15.70
2022-12-13T00:42:45.299Z,15.20
2022-12-13T00:42:55.323Z,15.40
2022-12-13T00:43:05.353Z,16.00
2022-12-13T00:43:15.383Z,16.70
2022-12-13T00:43:25.409Z,16.40
2022-12-13T00:43:35.457Z,16.30
2022-12-13T00:43:45.482Z,15.90
2022-12-13T00:43:55.508Z,15.60
2022-12-13T00:44:05.548Z,15.50
2022-12-13T00:44:15.591Z,15.60
2022-12-13T00:44:25.625Z,15.60
2022-12-13T00:44:35.702Z,15.10
2022-12-13T00:44:45.740Z,15.60
2022-12-13T00:44:55.772Z,15.40
2022-12-13T00:45:05.807Z,15.90
2022-12-13T00:45:16.169Z,15.30
2022-12-13T00:45:25.887Z,15.30
2022-12-13T00:45:35.969Z,15.80
2022-12-13T00:45:46.058Z,16.20
2022-12-13T00:45:56.176Z,16.20
2022-12-13T00:46:06.305Z,15.30
2022-12-13T00:46:16.452Z,15.20
2022-12-13T00:46:26.513Z,15.60
2022-12-13T00:46:36.429Z,16.10
2022-12-13T00:46:46.509Z,16.30
2022-12-13T00:46:56.670Z,16.10
2022-12-13T00:47:06.603Z,16.20
2022-12-13T00:47:16.680Z,15.20
2022-12-13T00:47:26.769Z,15.10
2022-12-13T00:47:36.827Z,14.70
2022-12-13T00:47:46.900Z,15.20
2022-12-13T00:47:56.999Z,15.60
2022-12-13T00:48:07.139Z,15.90
2022-12-13T00:48:17.232Z,16.10
2022-12-13T00:48:27.318Z,16.10
2022-12-13T00:48:37.397Z,15.20
2022-12-13T00:48:47.469Z,14.70
2022-12-13T00:48:57.610Z,14.30
2022-12-13T00:49:07.698Z,14.50
2022-12-13T00:49:17.786Z,14.10
2022-12-13T00:49:27.884Z,15.00
2022-12-13T00:49:37.997Z,15.80
2022-12-13T00:49:48.093Z,16.30
2022-12-13T00:49:58.178Z,15.90
2022-12-13T00:50:08.263Z,16.10
2022-12-13T00:50:18.338Z,16.00
2022-12-13T00:50:28.439Z,16.00
2022-12-13T00:50:38.526Z,15.60
2022-12-13T00:50:48.620Z,15.70
2022-12-13T00:50:58.709Z,16.10
2022-12-13T00:51:08.727Z,16.60
2022-12-13T00:51:18.809Z,16.70
2022-12-13T00:51:28.897Z,17.00
2022-12-13T00:51:38.978Z,17.20
2022-12-13T00:51:49.058Z,17.20
2022-12-13T00:51:59.143Z,17.10
2022-12-13T00:52:09.225Z,16.90
2022-12-13T00:52:19.328Z,17.40
2022-12-13T00:52:29.418Z,17.10
2022-12-13T00:52:39.511Z,17.10
2022-12-13T00:52:49.568Z,16.60
2022-12-13T00:52:59.677Z,17.10
2022-12-13T00:53:09.759Z,16.90
2022-12-13T00:53:19.848Z,17.60
2022-12-13T00:53:29.927Z,16.10
2022-12-13T00:53:40.016Z,15.50
2022-12-13T00:53:50.082Z,15.30
2022-12-13T00:54:00.207Z,15.60
2022-12-13T00:54:10.288Z,16.00
2022-12-13T00:54:20.375Z,15.60
2022-12-13T00:54:30.466Z,16.40
2022-12-13T00:54:40.538Z,16.60
2022-12-13T00:54:50.627Z,17.10
2022-12-13T00:55:00.705Z,16.30
2022-12-13T00:55:10.787Z,16.20
2022-12-13T00:55:20.878Z,16.00
2022-12-13T00:55:30.857Z,16.50
2022-12-13T00:55:40.992Z,16.60
2022-12-13T00:55:51.058Z,16.50
2022-12-13T00:56:01.141Z,16.80
2022-12-13T00:56:11.217Z,16.40
2022-12-13T00:56:21.323Z,16.30
2022-12-13T00:56:31.400Z,16.60
2022-12-13T00:56:41.486Z,16.50
2022-12-13T00:56:51.568Z,16.90
2022-12-13T00:57:01.659Z,17.00
2022-12-13T00:57:11.725Z,17.10
2022-12-13T00:57:21.827Z,16.10
2022-12-13T00:57:31.897Z,16.00
2022-12-13T00:57:41.991Z,15.80
2022-12-13T00:57:52.077Z,15.70
2022-12-13T00:58:02.157Z,15.10
2022-12-13T00:58:12.223Z,15.80
2022-12-13T00:58:22.296Z,16.00
2022-12-13T00:58:32.388Z,16.00
2022-12-13T00:58:51.700Z,16.30
2022-12-13T00:58:57.375Z,16.70
2022-12-13T00:59:07.518Z,15.80
2022-12-13T00:59:17.647Z,15.60
2022-12-13T00:59:27.756Z,15.50
2022-12-13T00:59:37.884Z,15.60
2022-12-13T00:59:48.007Z,16.20
2022-12-13T00:59:58.126Z,15.60
2022-12-13T01:00:08.097Z,16.50
2022-12-13T01:00:18.777Z,16.50
2022-12-13T01:00:28.224Z,16.40
2022-12-13T01:00:38.376Z,15.40
2022-12-13T01:00:48.517Z,15.20
2022-12-13T01:00:58.686Z,15.70
2022-12-13T01:01:08.764Z,17.10
2022-12-13T01:01:18.909Z,17.10
2022-12-13T01:01:28.985Z,17.00
2022-12-13T01:01:39.031Z,16.40
2022-12-13T01:01:49.137Z,16.30
2022-12-13T01:01:59.111Z,16.20
2022-12-13T01:02:09.206Z,15.80
2022-12-13T01:02:19.362Z,14.90
2022-12-13T01:02:29.335Z,15.50
2022-12-13T01:02:39.456Z,16.40
2022-12-13T01:02:49.547Z,16.70
2022-12-13T01:02:59.602Z,15.80
2022-12-13T01:03:09.596Z,14.70
2022-12-13T01:03:19.574Z,15.30
2022-12-13T01:03:29.697Z,15.70
2022-12-13T01:03:39.669Z,16.80
2022-12-13T01:03:49.748Z,16.30
2022-12-13T01:03:59.826Z,16.10
2022-12-13T01:04:09.886Z,16.00
2022-12-13T01:04:20.006Z,16.40
2022-12-13T01:04:30.084Z,16.20
2022-12-13T01:04:40.165Z,15.30
2022-12-13T01:04:50.235Z,15.10
2022-12-13T01:05:00.366Z,15.40
2022-12-13T01:05:10.452Z,16.30
2022-12-13T01:05:46.042Z,16.10
2022-12-13T01:06:11.037Z,16.20
2022-12-13T01:06:13.792Z,15.80
2022-12-13T01:06:14.719Z,16.10
2022-12-13T01:06:16.496Z,16.90
2022-12-13T01:06:25.346Z,16.80
2022-12-13T01:06:35.448Z,16.60
2022-12-13T01:06:45.517Z,15.50
2022-12-13T01:06:55.545Z,15.10
2022-12-13T01:07:05.667Z,15.50
2022-12-13T01:07:15.755Z,16.80
2022-12-13T01:07:25.835Z,16.70
2022-12-13T01:07:35.863Z,16.10
2022-12-13T01:07:45.955Z,15.80
2022-12-13T01:07:56.104Z,16.30
2022-12-13T01:08:06.227Z,16.90
2022-12-13T01:08:16.325Z,16.30
2022-12-13T01:08:26.479Z,16.20
2022-12-13T01:08:36.445Z,16.20
2022-12-13T01:08:46.534Z,16.50
2022-12-13T01:08:56.618Z,16.20
2022-12-13T01:09:06.723Z,15.50
2022-12-13T01:09:16.812Z,15.20
2022-12-13T01:09:26.894Z,15.80
2022-12-13T01:09:36.985Z,16.40
2022-12-13T01:09:47.064Z,17.40
2022-12-13T01:09:57.172Z,17.50
2022-12-13T01:10:07.328Z,17.40
2022-12-13T01:10:17.495Z,16.60
2022-12-13T01:10:27.429Z,17.00
2022-12-13T01:10:37.415Z,16.90
2022-12-13T01:10:47.543Z,17.50
2022-12-13T01:10:57.635Z,16.60
2022-12-13T01:11:07.735Z,16.40
2022-12-13T01:11:17.829Z,16.60
2022-12-13T01:11:27.932Z,17.40
2022-12-13T01:11:38.014Z,17.20
2022-12-13T01:11:48.113Z,16.90
2022-12-13T01:11:58.217Z,16.50
2022-12-13T01:12:08.313Z,17.10
2022-12-13T01:12:18.432Z,16.60
2022-12-13T01:12:28.504Z,17.10
2022-12-13T01:12:38.596Z,16.20
2022-12-13T01:12:48.684Z,15.50
2022-12-13T01:12:58.783Z,15.70
2022-12-13T01:13:08.865Z,16.30
2022-12-13T01:13:18.964Z,17.10
2022-12-13T01:13:28.975Z,16.90
2022-12-13T01:13:39.044Z,16.50
2022-12-13T01:13:49.053Z,17.00
2022-12-13T01:13:59.153Z,16.60
2022-12-13T01:14:09.260Z,17.00
2022-12-13T01:14:19.353Z,16.60
2022-12-13T01:14:29.415Z,16.00
2022-12-13T01:14:39.501Z,16.10
2022-12-13T01:14:54.486Z,15.90
2022-12-13T01:15:00.562Z,16.50
2022-12-13T01:15:10.673Z,17.50
2022-12-13T01:15:20.780Z,17.60
2022-12-13T01:15:30.924Z,17.20
2022-12-13T01:15:40.995Z,16.30
2022-12-13T01:15:51.082Z,16.10
2022-12-13T01:16:01.184Z,16.10
2022-12-13T01:16:11.263Z,17.30
2022-12-13T01:16:21.388Z,17.50
2022-12-13T01:16:31.546Z,17.20
2022-12-13T01:16:41.695Z,17.10
2022-12-13T01:16:51.717Z,16.40
2022-12-13T01:17:01.715Z,16.10
2022-12-13T01:17:11.855Z,15.20
2022-12-13T01:17:21.812Z,16.10
2022-12-13T01:17:31.892Z,16.40
2022-12-13T01:17:41.989Z,16.50
2022-12-13T01:17:52.063Z,16.10
2022-12-13T01:18:02.163Z,16.10
2022-12-13T01:18:12.240Z,15.90
2022-12-13T01:18:22.342Z,16.20
2022-12-13T01:18:32.431Z,15.80
2022-12-13T01:18:42.552Z,16.30
2022-12-13T01:18:52.632Z,15.90
2022-12-13T01:19:02.743Z,16.60
2022-12-13T01:19:12.840Z,16.80
2022-12-13T01:19:22.926Z,16.90
2022-12-13T01:19:33.022Z,16.90
2022-12-13T01:19:43.101Z,16.30
2022-12-13T01:19:53.182Z,15.90
2022-12-13T01:20:03.263Z,15.50
2022-12-13T01:20:13.360Z,15.70
2022-12-13T01:20:23.436Z,16.30
2022-12-13T01:20:33.514Z,16.10
2022-12-13T01:20:43.604Z,16.20
2022-12-13T01:20:53.681Z,15.60
2022-12-13T01:21:03.794Z,16.00
2022-12-13T01:21:13.862Z,14.70
2022-12-13T01:21:23.977Z,14.60
2022-12-13T01:21:34.043Z,14.20
2022-12-13T01:21:44.141Z,15.30
2022-12-13T01:21:54.230Z,15.60
2022-12-13T01:22:04.362Z,16.10
2022-12-13T01:22:14.463Z,15.40
2022-12-13T01:22:24.562Z,16.10
2022-12-13T01:22:34.661Z,15.80
2022-12-13T01:22:44.745Z,16.30
2022-12-13T01:22:54.834Z,16.30
2022-12-13T01:23:04.980Z,15.50
2022-12-13T01:23:15.064Z,15.40
2022-12-13T01:23:25.151Z,14.40
2022-12-13T01:23:35.248Z,14.40
2022-12-13T01:23:45.343Z,14.30
2022-12-13T01:23:55.431Z,14.60
2022-12-13T01:24:05.551Z,15.10
2022-12-13T01:24:15.630Z,15.50
2022-12-13T01:24:25.741Z,15.60
2022-12-13T01:24:35.824Z,15.90
2022-12-13T01:24:45.923Z,15.90
2022-12-13T01:24:56.020Z,15.90
2022-12-13T01:25:06.134Z,15.60
2022-12-13T01:25:16.457Z,15.70
2022-12-13T01:25:26.343Z,15.70
2022-12-13T01:25:36.420Z,15.50
2022-12-13T01:25:46.510Z,15.20
2022-12-13T01:25:56.611Z,14.80
2022-12-13T01:26:06.712Z,15.30
2022-12-13T01:26:16.810Z,16.00
2022-12-13T01:26:26.898Z,16.70
2022-12-13T01:26:36.992Z,16.80
2022-12-13T01:26:47.112Z,16.20
2022-12-13T01:26:57.411Z,16.00
2022-12-13T01:27:07.308Z,15.30
2022-12-13T01:27:17.400Z,15.40
2022-12-13T01:27:27.505Z,16.10
2022-12-13T01:27:37.641Z,16.90
2022-12-13T01:27:47.720Z,16.70
2022-12-13T01:27:57.825Z,16.00
2022-12-13T01:28:07.880Z,15.60
2022-12-13T01:28:17.900Z,16.20
2022-12-13T01:28:27.991Z,16.20
2022-12-13T01:28:38.072Z,16.10
2022-12-13T01:28:48.140Z,15.40
2022-12-13T01:28:58.223Z,14.80
2022-12-13T01:29:08.299Z,14.50
2022-12-13T01:29:18.387Z,14.50
2022-12-13T01:29:28.482Z,15.30
2022-12-13T01:29:38.549Z,15.80
2022-12-13T01:29:48.640Z,16.10
2022-12-13T01:29:58.739Z,16.00
2022-12-13T01:30:08.839Z,16.90
2022-12-13T01:30:18.911Z,17.40
2022-12-13T01:30:29.001Z,17.50
2022-12-13T01:30:39.195Z,16.00
2022-12-13T01:30:49.165Z,15.90
2022-12-13T01:30:59.492Z,16.10
2022-12-13T01:31:09.473Z,16.50
2022-12-13T01:31:19.642Z,16.30
2022-12-13T01:31:29.580Z,16.20
2022-12-13T01:31:39.700Z,16.30
2022-12-13T01:31:49.770Z,16.60
2022-12-13T01:31:59.897Z,16.00
2022-12-13T01:32:09.971Z,15.70
2022-12-13T01:32:20.070Z,15.60
2022-12-13T01:32:30.178Z,15.60
2022-12-13T01:32:40.260Z,15.90
2022-12-13T01:32:50.344Z,15.90
2022-12-13T01:33:00.430Z,16.40
2022-12-13T01:33:14.113Z,16.10
2022-12-13T01:33:20.619Z,15.80
2022-12-13T01:33:30.709Z,16.00
2022-12-13T01:33:40.789Z,16.30
2022-12-13T01:33:50.879Z,17.10
2022-12-13T01:34:01.008Z,17.50
2022-12-13T01:34:11.111Z,17.00
2022-12-13T01:34:21.188Z,16.60
2022-12-13T01:34:32.147Z,15.90
2022-12-13T01:34:42.228Z,15.90
2022-12-13T01:34:52.303Z,16.10
2022-12-13T01:35:02.380Z,15.90
2022-12-13T01:35:12.755Z,16.40
2022-12-13T01:35:22.508Z,16.30
2022-12-13T01:35:32.578Z,17.00
2022-12-13T01:35:42.708Z,17.30
2022-12-13T01:35:52.685Z,18.00
2022-12-13T01:36:02.767Z,17.80
2022-12-13T01:36:12.855Z,17.30
2022-12-13T01:36:27.559Z,16.00
2022-12-13T01:36:33.898Z,16.40
2022-12-13T01:36:44.110Z,17.10
2022-12-13T01:36:54.207Z,18.20
2022-12-13T01:37:04.487Z,17.40
2022-12-13T01:37:14.558Z,16.70
2022-12-13T01:37:26.210Z,16.40
2022-12-13T01:37:37.549Z,17.40
2022-12-13T01:37:44.668Z,17.40
2022-12-13T01:37:54.751Z,17.20
2022-12-13T01:38:15.627Z,16.50
2022-12-13T01:38:16.393Z,16.90
2022-12-13T01:38:26.386Z,16.80
2022-12-13T01:38:38.116Z,16.80
2022-12-13T01:38:46.008Z,16.90
2022-12-13T01:38:58.319Z,16.80
2022-12-13T01:39:14.738Z,17.00
2022-12-13T01:39:17.159Z,17.10
2022-12-13T01:39:27.447Z,17.20
2022-12-13T01:39:38.303Z,16.70
2022-12-13T01:39:47.506Z,16.70
2022-12-13T01:39:58.531Z,17.00
2022-12-13T01:40:15.861Z,16.50
2022-12-13T01:40:18.638Z,16.20
2022-12-13T01:40:28.698Z,16.70
2022-12-13T01:40:38.876Z,17.60
2022-12-13T01:40:48.790Z,17.20
2022-12-13T01:40:59.203Z,17.50
2022-12-13T01:41:17.492Z,16.90
2022-12-13T01:41:19.917Z,17.70
2022-12-13T01:41:30.874Z,17.50
2022-12-13T01:41:40.958Z,17.70
2022-12-13T01:41:51.017Z,17.90
2022-12-13T01:42:01.092Z,16.90
2022-12-13T01:42:11.158Z,17.30
2022-12-13T01:42:21.238Z,17.20
2022-12-13T01:42:31.226Z,17.70
2022-12-13T01:42:41.315Z,17.40
2022-12-13T01:42:51.392Z,17.20
2022-12-13T01:43:01.357Z,16.70
2022-12-13T01:43:14.706Z,16.90
2022-12-13T01:43:21.507Z,17.00
2022-12-13T01:43:31.588Z,17.70
2022-12-13T01:43:41.687Z,17.60
2022-12-13T01:43:51.817Z,17.10
2022-12-13T01:44:01.906Z,16.60
2022-12-13T01:44:11.997Z,17.40
2022-12-13T01:44:22.076Z,17.80
2022-12-13T01:44:32.165Z,17.80
2022-12-13T01:44:42.235Z,17.60
2022-12-13T01:44:52.315Z,17.20
2022-12-13T01:45:02.389Z,17.40
2022-12-13T01:45:12.857Z,17.40
2022-12-13T01:45:22.504Z,17.90
2022-12-13T01:45:32.576Z,17.80
2022-12-13T01:45:42.669Z,17.70
2022-12-13T01:45:52.898Z,17.20
2022-12-13T01:46:02.902Z,17.10
2022-12-13T01:46:12.989Z,16.50
2022-12-13T01:46:22.991Z,16.70
2022-12-13T01:46:33.054Z,16.80
2022-12-13T01:46:42.994Z,17.50
2022-12-13T01:46:53.091Z,18.60
2022-12-13T01:47:03.169Z,18.20
2022-12-13T01:47:13.247Z,18.10
2022-12-13T01:47:23.327Z,17.20
2022-12-13T01:47:33.415Z,17.70
2022-12-13T01:47:43.523Z,17.10
2022-12-13T01:47:53.599Z,17.50
2022-12-13T01:48:03.696Z,17.50
2022-12-13T01:48:13.777Z,17.80
2022-12-13T01:48:23.856Z,17.60
2022-12-13T01:48:33.950Z,17.70
2022-12-13T01:48:44.034Z,17.70
2022-12-13T01:48:54.130Z,17.30
2022-12-13T01:49:04.217Z,17.60
2022-12-13T01:49:19.895Z,17.40
2022-12-13T01:49:25.295Z,17.90
2022-12-13T01:49:35.395Z,17.30
2022-12-13T01:49:45.486Z,17.40
2022-12-13T01:49:55.554Z,17.00
2022-12-13T01:50:05.635Z,17.70
2022-12-13T01:50:15.725Z,17.80
2022-12-13T01:50:25.803Z,18.30
2022-12-13T01:50:35.878Z,18.30
2022-12-13T01:50:45.975Z,18.30
2022-12-13T01:50:56.102Z,18.10
2022-12-13T01:51:06.175Z,17.10
2022-12-13T01:51:16.256Z,17.00
2022-12-13T01:51:26.354Z,16.50
2022-12-13T01:51:36.445Z,16.80
2022-12-13T01:51:46.515Z,16.10
2022-12-13T01:51:56.594Z,16.10
2022-12-13T01:52:06.676Z,16.60
2022-12-13T01:52:16.759Z,17.90
2022-12-13T01:52:26.855Z,17.80
2022-12-13T01:52:36.935Z,17.40
2022-12-13T01:52:47.025Z,16.20
2022-12-13T01:52:57.114Z,16.50
2022-12-13T01:53:07.294Z,16.40
2022-12-13T01:53:17.375Z,16.90
2022-12-13T01:53:27.474Z,18.30
2022-12-13T01:53:37.556Z,18.80
2022-12-13T01:53:47.645Z,19.40
2022-12-13T01:53:57.733Z,17.90
2022-12-13T01:54:07.874Z,17.20
2022-12-13T01:54:21.023Z,16.60
2022-12-13T01:54:33.405Z,17.40
2022-12-13T01:54:38.997Z,16.90
2022-12-13T01:54:49.945Z,16.90
2022-12-13T01:55:03.721Z,16.40
2022-12-13T01:55:10.105Z,16.60
2022-12-13T01:55:20.483Z,17.30
2022-12-13T01:55:30.238Z,17.30
2022-12-13T01:55:41.463Z,17.60
2022-12-13T01:55:50.424Z,17.10
2022-12-13T01:56:00.514Z,17.20
2022-12-13T01:56:10.604Z,16.80
2022-12-13T01:56:20.684Z,16.30
2022-12-13T01:56:30.774Z,16.90
2022-12-13T01:56:40.864Z,17.40
2022-12-13T01:56:50.964Z,17.90
2022-12-13T01:57:01.192Z,18.30
2022-12-13T01:57:11.092Z,17.90
2022-12-13T01:57:21.173Z,16.90
2022-12-13T01:57:31.234Z,16.30
2022-12-13T01:57:45.400Z,16.10
2022-12-13T01:57:51.374Z,16.50
2022-12-13T01:58:01.457Z,16.80
2022-12-13T01:58:11.533Z,17.20
2022-12-13T01:58:21.604Z,17.40
2022-12-13T01:58:31.660Z,17.40
2022-12-13T01:58:41.778Z,16.70
2022-12-13T01:58:52.754Z,16.80
2022-12-13T01:59:02.843Z,16.60
2022-12-13T01:59:12.914Z,16.60
2022-12-13T01:59:22.992Z,16.70
2022-12-13T01:59:33.055Z,17.00
2022-12-13T01:59:43.132Z,18.00
2022-12-13T01:59:53.198Z,17.30
2022-12-13T02:00:03.275Z,16.30
2022-12-13T02:00:13.371Z,15.40
2022-12-13T02:00:23.423Z,15.10
2022-12-13T02:00:33.514Z,15.80
2022-12-13T02:00:43.591Z,16.30
2022-12-13T02:00:53.683Z,17.00
2022-12-13T02:01:03.802Z,17.60
2022-12-13T02:01:13.911Z,17.50
2022-12-13T02:01:24.006Z,17.30
2022-12-13T02:01:34.096Z,16.70
2022-12-13T02:01:44.218Z,17.00
2022-12-13T02:01:54.282Z,17.60
2022-12-13T02:02:05.232Z,17.90
2022-12-13T02:02:15.304Z,17.70
2022-12-13T02:02:25.374Z,17.40
2022-12-13T02:02:35.464Z,17.50
2022-12-13T02:02:45.543Z,17.70
2022-12-13T02:02:55.613Z,17.80
2022-12-13T02:03:05.692Z,18.40
2022-12-13T02:03:21.343Z,18.80
2022-12-13T02:03:26.783Z,18.00
2022-12-13T02:03:36.843Z,17.80
2022-12-13T02:03:46.931Z,17.50
2022-12-13T02:03:57.007Z,17.60
2022-12-13T02:04:07.121Z,17.10
2022-12-13T02:04:17.219Z,17.20
2022-12-13T02:04:27.345Z,17.10
2022-12-13T02:04:43.938Z,17.20
2022-12-13T02:04:48.454Z,16.30
2022-12-13T02:04:58.621Z,16.60
2022-12-13T02:05:08.775Z,16.70
2022-12-13T02:05:19.149Z,17.10
2022-12-13T02:05:29.024Z,17.00
2022-12-13T02:05:39.126Z,16.70
2022-12-13T02:05:49.172Z,16.90
2022-12-13T02:06:00.391Z,16.90
2022-12-13T02:06:09.382Z,17.10
2022-12-13T02:06:19.491Z,17.10
2022-12-13T02:06:29.572Z,17.00
2022-12-13T02:07:59.120Z,16.00
2022-12-13T02:08:03.802Z,17.30
2022-12-13T02:08:13.935Z,17.60
2022-12-13T02:08:24.029Z,17.40
2022-12-13T02:08:35.595Z,17.10
2022-12-13T02:08:44.271Z,16.90
2022-12-13T02:08:54.404Z,17.30
2022-12-13T02:09:04.502Z,16.80
2022-12-13T02:09:14.621Z,16.90
2022-12-13T02:09:24.718Z,16.70
2022-12-13T02:09:34.824Z,17.20
2022-12-13T02:09:44.933Z,17.70
2022-12-13T02:09:56.867Z,17.80
2022-12-13T02:10:05.319Z,17.10
2022-12-13T02:10:15.410Z,16.80
2022-12-13T02:10:25.514Z,16.40
2022-12-13T02:10:35.680Z,16.30
2022-12-13T02:10:45.770Z,16.10
2022-12-13T02:10:55.860Z,15.70
2022-12-13T02:11:05.970Z,16.00
2022-12-13T02:11:16.065Z,16.40
2022-12-13T02:11:26.150Z,17.50
2022-12-13T02:11:36.260Z,17.40
2022-12-13T02:11:46.341Z,17.20
2022-12-13T02:11:56.432Z,16.90